sensor_id;sensor_type;location;lat;lon;timestamp;temperature;humidity
1700;DHT22;847;48.058;7.810;2022-08-19T00:00:43;20.20;99.00
1700;DHT22;847;48.058;7.810;2022-08-19T00:03:10;20.20;99.00
1700;DHT22;847;48.058;7.810;2022-08-19T00:05:37;20.30;99.00
1700;DHT22;847;48.058;7.810;2022-08-19T00:08:04;20.20;99.00
1700;DHT22;847;48.058;7.810;2022-08-19T00:10:32;20.10;99.00
1700;DHT22;847;48.058;7.810;2022-08-19T00:12:59;20.00;99.00
1700;DHT22;847;48.058;7.810;2022-08-19T00:15:26;20.10;99.00
1700;DHT22;847;48.058;7.810;2022-08-19T00:17:54;20.10;99.00
1700;DHT22;847;48.058;7.810;2022-08-19T00:20:21;20.20;99.00
1700;DHT22;847;48.058;7.810;2022-08-19T00:22:49;20.20;99.00
1700;DHT22;847;48.058;7.810;2022-08-19T00:25:17;20.20;99.00
1700;DHT22;847;48.058;7.810;2022-08-19T00:27:45;20.20;99.00
1700;DHT22;847;48.058;7.810;2022-08-19T00:30:13;20.10;99.00
1700;DHT22;847;48.058;7.810;2022-08-19T00:32:40;20.10;99.00
1700;DHT22;847;48.058;7.810;2022-08-19T00:35:07;20.10;99.00
1700;DHT22;847;48.058;7.810;2022-08-19T00:37:35;20.10;99.00
1700;DHT22;847;48.058;7.810;2022-08-19T00:40:04;20.10;99.00
1700;DHT22;847;48.058;7.810;2022-08-19T00:42:31;20.10;99.00
1700;DHT22;847;48.058;7.810;2022-08-19T00:44:59;20.10;99.00
1700;DHT22;847;48.058;7.810;2022-08-19T00:47:26;20.10;99.00
1700;DHT22;847;48.058;7.810;2022-08-19T00:49:57;20.10;99.00
1700;DHT22;847;48.058;7.810;2022-08-19T00:52:27;20.20;99.00
1700;DHT22;847;48.058;7.810;2022-08-19T00:54:56;20.10;99.00
1700;DHT22;847;48.058;7.810;2022-08-19T00:57:28;20.10;99.00
1700;DHT22;847;48.058;7.810;2022-08-19T00:59:59;20.00;99.00
1700;DHT22;847;48.058;7.810;2022-08-19T01:02:28;20.00;99.00
1700;DHT22;847;48.058;7.810;2022-08-19T01:04:56;20.00;99.00
1700;DHT22;847;48.058;7.810;2022-08-19T01:07:23;20.00;99.00
1700;DHT22;847;48.058;7.810;2022-08-19T01:09:50;20.00;99.00
1700;DHT22;847;48.058;7.810;2022-08-19T01:12:18;20.00;99.00
1700;DHT22;847;48.058;7.810;2022-08-19T01:14:45;20.00;99.00
1700;DHT22;847;48.058;7.810;2022-08-19T01:17:15;20.00;99.00
1700;DHT22;847;48.058;7.810;2022-08-19T01:19:43;20.00;99.00
1700;DHT22;847;48.058;7.810;2022-08-19T01:22:16;20.00;99.00
1700;DHT22;847;48.058;7.810;2022-08-19T01:24:46;20.00;99.00
1700;DHT22;847;48.058;7.810;2022-08-19T01:27:13;20.00;99.00
1700;DHT22;847;48.058;7.810;2022-08-19T01:29:41;20.10;99.00
1700;DHT22;847;48.058;7.810;2022-08-19T01:32:12;20.10;99.00
1700;DHT22;847;48.058;7.810;2022-08-19T01:34:39;20.10;99.00
1700;DHT22;847;48.058;7.810;2022-08-19T01:37:08;20.00;99.00
1700;DHT22;847;48.058;7.810;2022-08-19T01:39:37;20.00;99.00
1700;DHT22;847;48.058;7.810;2022-08-19T01:42:08;20.00;99.00
1700;DHT22;847;48.058;7.810;2022-08-19T01:44:36;20.00;99.00
1700;DHT22;847;48.058;7.810;2022-08-19T01:47:04;20.00;99.00
1700;DHT22;847;48.058;7.810;2022-08-19T01:49:31;20.00;99.00
1700;DHT22;847;48.058;7.810;2022-08-19T01:52:00;20.00;99.00
1700;DHT22;847;48.058;7.810;2022-08-19T01:54:27;20.00;99.00
1700;DHT22;847;48.058;7.810;2022-08-19T01:57:03;20.00;99.00
1700;DHT22;847;48.058;7.810;2022-08-19T01:59:33;20.00;99.00
1700;DHT22;847;48.058;7.810;2022-08-19T02:02:02;20.00;99.00
1700;DHT22;847;48.058;7.810;2022-08-19T02:04:32;20.00;99.00
1700;DHT22;847;48.058;7.810;2022-08-19T02:06:59;19.90;99.00
1700;DHT22;847;48.058;7.810;2022-08-19T02:09:26;19.90;99.00
1700;DHT22;847;48.058;7.810;2022-08-19T02:11:53;19.90;99.00
1700;DHT22;847;48.058;7.810;2022-08-19T02:14:19;19.90;99.00
1700;DHT22;847;48.058;7.810;2022-08-19T02:16:47;19.90;99.00
1700;DHT22;847;48.058;7.810;2022-08-19T02:19:14;20.00;99.00
1700;DHT22;847;48.058;7.810;2022-08-19T02:21:41;20.00;99.00
1700;DHT22;847;48.058;7.810;2022-08-19T02:24:09;19.90;99.00
1700;DHT22;847;48.058;7.810;2022-08-19T02:26:35;19.90;99.00
1700;DHT22;847;48.058;7.810;2022-08-19T02:29:02;19.90;99.00
1700;DHT22;847;48.058;7.810;2022-08-19T02:31:29;19.90;99.00
1700;DHT22;847;48.058;7.810;2022-08-19T02:33:57;19.90;99.00
1700;DHT22;847;48.058;7.810;2022-08-19T02:36:25;19.80;99.00
1700;DHT22;847;48.058;7.810;2022-08-19T02:38:53;19.80;99.00
1700;DHT22;847;48.058;7.810;2022-08-19T02:41:20;19.80;99.00
1700;DHT22;847;48.058;7.810;2022-08-19T02:43:48;19.80;99.00
1700;DHT22;847;48.058;7.810;2022-08-19T02:46:17;19.80;99.00
1700;DHT22;847;48.058;7.810;2022-08-19T02:48:46;19.80;99.00
1700;DHT22;847;48.058;7.810;2022-08-19T02:51:17;19.80;99.00
1700;DHT22;847;48.058;7.810;2022-08-19T02:53:44;19.80;99.00
1700;DHT22;847;48.058;7.810;2022-08-19T02:56:11;19.80;99.00
1700;DHT22;847;48.058;7.810;2022-08-19T02:58:39;19.80;99.00
1700;DHT22;847;48.058;7.810;2022-08-19T03:01:06;19.80;99.00
1700;DHT22;847;48.058;7.810;2022-08-19T03:03:33;19.80;99.00
1700;DHT22;847;48.058;7.810;2022-08-19T03:06:06;19.70;99.00
1700;DHT22;847;48.058;7.810;2022-08-19T03:08:34;19.70;99.00
1700;DHT22;847;48.058;7.810;2022-08-19T03:11:01;19.70;99.00
1700;DHT22;847;48.058;7.810;2022-08-19T03:13:28;19.60;99.00
1700;DHT22;847;48.058;7.810;2022-08-19T03:15:55;19.70;99.00
1700;DHT22;847;48.058;7.810;2022-08-19T03:18:22;19.70;99.00
1700;DHT22;847;48.058;7.810;2022-08-19T03:20:50;19.70;99.00
1700;DHT22;847;48.058;7.810;2022-08-19T03:23:18;19.70;99.00
1700;DHT22;847;48.058;7.810;2022-08-19T03:25:48;19.60;99.00
1700;DHT22;847;48.058;7.810;2022-08-19T03:28:16;19.50;99.00
1700;DHT22;847;48.058;7.810;2022-08-19T03:30:55;19.40;99.00
1700;DHT22;847;48.058;7.810;2022-08-19T03:33:27;19.40;99.00
1700;DHT22;847;48.058;7.810;2022-08-19T03:36:02;19.50;99.00
1700;DHT22;847;48.058;7.810;2022-08-19T03:38:29;19.40;99.00
1700;DHT22;847;48.058;7.810;2022-08-19T03:40:57;19.50;99.00
1700;DHT22;847;48.058;7.810;2022-08-19T03:43:24;19.50;99.00
1700;DHT22;847;48.058;7.810;2022-08-19T03:46:00;19.50;99.00
1700;DHT22;847;48.058;7.810;2022-08-19T03:48:28;19.50;99.00
1700;DHT22;847;48.058;7.810;2022-08-19T03:50:55;19.50;99.00
1700;DHT22;847;48.058;7.810;2022-08-19T03:53:23;19.50;99.00
1700;DHT22;847;48.058;7.810;2022-08-19T03:55:51;19.50;99.00
1700;DHT22;847;48.058;7.810;2022-08-19T03:58:19;19.50;99.00
1700;DHT22;847;48.058;7.810;2022-08-19T04:00:46;19.60;99.00
1700;DHT22;847;48.058;7.810;2022-08-19T04:03:13;19.60;99.00
1700;DHT22;847;48.058;7.810;2022-08-19T04:05:40;19.60;99.00
1700;DHT22;847;48.058;7.810;2022-08-19T04:08:06;19.70;99.00
1700;DHT22;847;48.058;7.810;2022-08-19T04:10:35;19.60;99.00
1700;DHT22;847;48.058;7.810;2022-08-19T04:13:03;19.60;99.00
1700;DHT22;847;48.058;7.810;2022-08-19T04:15:32;19.60;99.00
1700;DHT22;847;48.058;7.810;2022-08-19T04:18:05;19.50;99.00
1700;DHT22;847;48.058;7.810;2022-08-19T04:20:33;19.50;99.00
1700;DHT22;847;48.058;7.810;2022-08-19T04:23:04;19.60;99.00
1700;DHT22;847;48.058;7.810;2022-08-19T04:25:35;19.60;99.00
1700;DHT22;847;48.058;7.810;2022-08-19T04:28:03;19.50;99.00
1700;DHT22;847;48.058;7.810;2022-08-19T04:30:29;19.40;99.00
1700;DHT22;847;48.058;7.810;2022-08-19T04:32:58;19.40;99.00
1700;DHT22;847;48.058;7.810;2022-08-19T04:35:24;19.40;99.00
1700;DHT22;847;48.058;7.810;2022-08-19T04:37:51;19.40;99.00
1700;DHT22;847;48.058;7.810;2022-08-19T04:40:18;19.40;99.00
1700;DHT22;847;48.058;7.810;2022-08-19T04:43:02;19.40;99.00
1700;DHT22;847;48.058;7.810;2022-08-19T04:45:29;19.40;99.00
1700;DHT22;847;48.058;7.810;2022-08-19T04:47:57;19.40;99.00
1700;DHT22;847;48.058;7.810;2022-08-19T04:50:24;19.40;99.00
1700;DHT22;847;48.058;7.810;2022-08-19T04:52:51;19.40;99.00
1700;DHT22;847;48.058;7.810;2022-08-19T04:55:18;19.50;99.00
1700;DHT22;847;48.058;7.810;2022-08-19T04:57:45;19.60;99.00
1700;DHT22;847;48.058;7.810;2022-08-19T05:00:12;19.50;99.00
1700;DHT22;847;48.058;7.810;2022-08-19T05:02:39;19.60;99.00
1700;DHT22;847;48.058;7.810;2022-08-19T05:05:08;19.60;99.00
1700;DHT22;847;48.058;7.810;2022-08-19T05:07:36;19.60;99.00
1700;DHT22;847;48.058;7.810;2022-08-19T05:10:03;19.70;99.00
1700;DHT22;847;48.058;7.810;2022-08-19T05:12:31;19.70;99.00
1700;DHT22;847;48.058;7.810;2022-08-19T05:14:58;19.70;99.00
1700;DHT22;847;48.058;7.810;2022-08-19T05:17:26;19.70;99.00
1700;DHT22;847;48.058;7.810;2022-08-19T05:19:53;19.70;99.00
1700;DHT22;847;48.058;7.810;2022-08-19T05:22:40;19.70;99.00
1700;DHT22;847;48.058;7.810;2022-08-19T05:25:09;19.80;99.00
1700;DHT22;847;48.058;7.810;2022-08-19T05:27:37;19.80;99.00
1700;DHT22;847;48.058;7.810;2022-08-19T05:30:05;19.80;99.00
1700;DHT22;847;48.058;7.810;2022-08-19T05:32:32;19.80;99.00
1700;DHT22;847;48.058;7.810;2022-08-19T05:34:58;19.80;99.00
1700;DHT22;847;48.058;7.810;2022-08-19T05:37:25;19.80;99.00
1700;DHT22;847;48.058;7.810;2022-08-19T05:39:54;19.70;99.00
1700;DHT22;847;48.058;7.810;2022-08-19T05:42:22;19.70;99.00
1700;DHT22;847;48.058;7.810;2022-08-19T05:44:50;19.70;99.00
1700;DHT22;847;48.058;7.810;2022-08-19T05:47:17;19.80;99.00
1700;DHT22;847;48.058;7.810;2022-08-19T05:49:45;19.80;99.00
1700;DHT22;847;48.058;7.810;2022-08-19T05:52:13;19.80;99.00
1700;DHT22;847;48.058;7.810;2022-08-19T05:54:41;19.80;99.00
1700;DHT22;847;48.058;7.810;2022-08-19T05:57:09;19.90;99.00
1700;DHT22;847;48.058;7.810;2022-08-19T05:59:36;19.90;99.00
1700;DHT22;847;48.058;7.810;2022-08-19T06:02:05;19.90;99.00
1700;DHT22;847;48.058;7.810;2022-08-19T06:04:32;19.90;99.00
1700;DHT22;847;48.058;7.810;2022-08-19T06:06:59;19.90;99.00
1700;DHT22;847;48.058;7.810;2022-08-19T06:09:27;19.90;99.00
1700;DHT22;847;48.058;7.810;2022-08-19T06:11:56;19.90;99.00
1700;DHT22;847;48.058;7.810;2022-08-19T06:14:28;19.90;99.00
1700;DHT22;847;48.058;7.810;2022-08-19T06:16:56;19.90;99.00
1700;DHT22;847;48.058;7.810;2022-08-19T06:19:23;19.90;99.00
1700;DHT22;847;48.058;7.810;2022-08-19T06:21:51;19.90;99.00
1700;DHT22;847;48.058;7.810;2022-08-19T06:24:20;19.90;99.00
1700;DHT22;847;48.058;7.810;2022-08-19T06:26:49;20.00;99.00
1700;DHT22;847;48.058;7.810;2022-08-19T06:29:17;20.00;99.00
1700;DHT22;847;48.058;7.810;2022-08-19T06:31:48;20.00;99.00
1700;DHT22;847;48.058;7.810;2022-08-19T06:34:15;20.00;99.00
1700;DHT22;847;48.058;7.810;2022-08-19T06:36:44;20.00;99.00
1700;DHT22;847;48.058;7.810;2022-08-19T06:39:13;20.10;99.00
1700;DHT22;847;48.058;7.810;2022-08-19T06:41:42;20.10;99.00
1700;DHT22;847;48.058;7.810;2022-08-19T06:44:09;20.10;99.00
1700;DHT22;847;48.058;7.810;2022-08-19T06:46:36;20.00;99.00
1700;DHT22;847;48.058;7.810;2022-08-19T06:49:05;20.00;99.00
1700;DHT22;847;48.058;7.810;2022-08-19T06:51:37;20.10;99.00
1700;DHT22;847;48.058;7.810;2022-08-19T06:54:04;20.00;99.00
1700;DHT22;847;48.058;7.810;2022-08-19T06:56:32;20.00;99.00
1700;DHT22;847;48.058;7.810;2022-08-19T06:59:00;20.10;99.00
1700;DHT22;847;48.058;7.810;2022-08-19T07:01:27;20.10;99.00
1700;DHT22;847;48.058;7.810;2022-08-19T07:03:54;20.10;99.00
1700;DHT22;847;48.058;7.810;2022-08-19T07:06:23;20.20;99.00
1700;DHT22;847;48.058;7.810;2022-08-19T07:08:49;20.20;99.00
1700;DHT22;847;48.058;7.810;2022-08-19T07:11:18;20.20;99.00
1700;DHT22;847;48.058;7.810;2022-08-19T07:13:46;20.20;99.00
1700;DHT22;847;48.058;7.810;2022-08-19T07:16:16;20.20;99.00
1700;DHT22;847;48.058;7.810;2022-08-19T07:18:44;20.30;99.00
1700;DHT22;847;48.058;7.810;2022-08-19T07:21:13;20.30;99.00
1700;DHT22;847;48.058;7.810;2022-08-19T07:23:42;20.40;99.00
1700;DHT22;847;48.058;7.810;2022-08-19T07:26:13;20.40;99.00
1700;DHT22;847;48.058;7.810;2022-08-19T07:28:40;20.40;99.00
1700;DHT22;847;48.058;7.810;2022-08-19T07:31:10;20.50;99.00
1700;DHT22;847;48.058;7.810;2022-08-19T07:33:37;20.70;99.00
1700;DHT22;847;48.058;7.810;2022-08-19T07:36:04;20.90;99.00
1700;DHT22;847;48.058;7.810;2022-08-19T07:38:33;21.00;99.00
1700;DHT22;847;48.058;7.810;2022-08-19T07:41:01;21.30;99.00
1700;DHT22;847;48.058;7.810;2022-08-19T07:43:28;21.70;99.00
1700;DHT22;847;48.058;7.810;2022-08-19T07:45:55;21.70;99.00
1700;DHT22;847;48.058;7.810;2022-08-19T07:48:22;22.00;99.00
1700;DHT22;847;48.058;7.810;2022-08-19T07:50:51;22.10;99.00
1700;DHT22;847;48.058;7.810;2022-08-19T07:53:18;22.20;99.00
1700;DHT22;847;48.058;7.810;2022-08-19T07:55:45;22.50;99.00
1700;DHT22;847;48.058;7.810;2022-08-19T07:58:15;22.60;99.00
1700;DHT22;847;48.058;7.810;2022-08-19T08:00:44;22.40;99.00
1700;DHT22;847;48.058;7.810;2022-08-19T08:03:12;22.50;99.00
1700;DHT22;847;48.058;7.810;2022-08-19T08:05:39;22.70;99.00
1700;DHT22;847;48.058;7.810;2022-08-19T08:08:23;22.70;99.00
1700;DHT22;847;48.058;7.810;2022-08-19T08:11:07;22.90;99.00
1700;DHT22;847;48.058;7.810;2022-08-19T08:13:37;22.90;99.00
1700;DHT22;847;48.058;7.810;2022-08-19T08:16:06;22.80;99.00
1700;DHT22;847;48.058;7.810;2022-08-19T08:18:34;22.70;99.00
1700;DHT22;847;48.058;7.810;2022-08-19T08:21:07;22.70;99.00
1700;DHT22;847;48.058;7.810;2022-08-19T08:23:34;22.80;99.00
1700;DHT22;847;48.058;7.810;2022-08-19T08:26:01;22.90;99.00
1700;DHT22;847;48.058;7.810;2022-08-19T08:28:30;23.00;99.00
1700;DHT22;847;48.058;7.810;2022-08-19T08:30:58;23.10;99.00
1700;DHT22;847;48.058;7.810;2022-08-19T08:33:27;23.30;99.00
1700;DHT22;847;48.058;7.810;2022-08-19T08:35:55;23.40;99.00
1700;DHT22;847;48.058;7.810;2022-08-19T08:38:22;23.20;99.00
1700;DHT22;847;48.058;7.810;2022-08-19T08:40:53;23.10;99.00
1700;DHT22;847;48.058;7.810;2022-08-19T08:43:26;23.30;99.00
1700;DHT22;847;48.058;7.810;2022-08-19T08:46:00;23.20;99.00
1700;DHT22;847;48.058;7.810;2022-08-19T08:48:35;23.10;99.00
1700;DHT22;847;48.058;7.810;2022-08-19T08:51:07;23.00;99.00
1700;DHT22;847;48.058;7.810;2022-08-19T08:53:36;23.10;99.00
1700;DHT22;847;48.058;7.810;2022-08-19T08:56:04;23.20;99.00
1700;DHT22;847;48.058;7.810;2022-08-19T08:58:47;23.20;99.00
1700;DHT22;847;48.058;7.810;2022-08-19T09:01:18;23.00;98.20
1700;DHT22;847;48.058;7.810;2022-08-19T09:03:46;22.80;99.00
1700;DHT22;847;48.058;7.810;2022-08-19T09:06:17;23.00;99.00
1700;DHT22;847;48.058;7.810;2022-08-19T09:08:49;22.80;97.90
1700;DHT22;847;48.058;7.810;2022-08-19T09:11:30;22.60;99.00
1700;DHT22;847;48.058;7.810;2022-08-19T09:14:07;22.60;99.00
1700;DHT22;847;48.058;7.810;2022-08-19T09:16:37;22.60;99.00
1700;DHT22;847;48.058;7.810;2022-08-19T09:19:07;22.90;98.80
1700;DHT22;847;48.058;7.810;2022-08-19T09:21:34;22.80;99.00
1700;DHT22;847;48.058;7.810;2022-08-19T09:24:01;22.70;99.00
1700;DHT22;847;48.058;7.810;2022-08-19T09:26:29;22.80;99.00
1700;DHT22;847;48.058;7.810;2022-08-19T09:28:57;22.80;99.00
1700;DHT22;847;48.058;7.810;2022-08-19T09:31:27;22.80;99.00
1700;DHT22;847;48.058;7.810;2022-08-19T09:33:56;22.80;99.00
1700;DHT22;847;48.058;7.810;2022-08-19T09:36:24;22.70;99.00
1700;DHT22;847;48.058;7.810;2022-08-19T09:38:52;22.60;99.00
1700;DHT22;847;48.058;7.810;2022-08-19T09:41:21;22.30;98.50
1700;DHT22;847;48.058;7.810;2022-08-19T09:43:50;22.20;99.00
1700;DHT22;847;48.058;7.810;2022-08-19T09:46:19;22.20;99.00
1700;DHT22;847;48.058;7.810;2022-08-19T09:48:47;22.20;99.00
1700;DHT22;847;48.058;7.810;2022-08-19T09:51:18;22.20;99.00
1700;DHT22;847;48.058;7.810;2022-08-19T09:53:46;22.10;99.00
1700;DHT22;847;48.058;7.810;2022-08-19T09:56:16;22.20;99.00
1700;DHT22;847;48.058;7.810;2022-08-19T09:58:43;22.20;99.00
1700;DHT22;847;48.058;7.810;2022-08-19T10:01:15;22.20;99.00
1700;DHT22;847;48.058;7.810;2022-08-19T10:03:42;22.10;99.00
1700;DHT22;847;48.058;7.810;2022-08-19T10:06:09;22.20;99.00
1700;DHT22;847;48.058;7.810;2022-08-19T10:08:37;22.20;99.00
1700;DHT22;847;48.058;7.810;2022-08-19T10:11:05;22.20;99.00
1700;DHT22;847;48.058;7.810;2022-08-19T10:13:33;22.20;99.00
1700;DHT22;847;48.058;7.810;2022-08-19T10:16:04;22.20;98.10
1700;DHT22;847;48.058;7.810;2022-08-19T10:18:32;22.30;98.60
1700;DHT22;847;48.058;7.810;2022-08-19T10:21:04;22.30;98.70
1700;DHT22;847;48.058;7.810;2022-08-19T10:23:34;22.20;97.10
1700;DHT22;847;48.058;7.810;2022-08-19T10:26:03;22.30;97.90
1700;DHT22;847;48.058;7.810;2022-08-19T10:28:31;22.30;97.90
1700;DHT22;847;48.058;7.810;2022-08-19T10:30:58;22.30;98.40
1700;DHT22;847;48.058;7.810;2022-08-19T10:33:29;22.30;99.00
1700;DHT22;847;48.058;7.810;2022-08-19T10:35:59;22.40;98.80
1700;DHT22;847;48.058;7.810;2022-08-19T10:38:26;22.40;99.00
1700;DHT22;847;48.058;7.810;2022-08-19T10:40:54;22.40;99.00
1700;DHT22;847;48.058;7.810;2022-08-19T10:43:22;22.40;98.70
1700;DHT22;847;48.058;7.810;2022-08-19T10:45:52;22.50;99.00
1700;DHT22;847;48.058;7.810;2022-08-19T10:48:20;22.50;97.50
1700;DHT22;847;48.058;7.810;2022-08-19T10:50:47;22.50;97.30
1700;DHT22;847;48.058;7.810;2022-08-19T10:53:31;22.50;98.10
1700;DHT22;847;48.058;7.810;2022-08-19T10:55:58;22.60;98.90
1700;DHT22;847;48.058;7.810;2022-08-19T10:58:43;22.70;97.50
1700;DHT22;847;48.058;7.810;2022-08-19T11:01:10;22.70;96.50
1700;DHT22;847;48.058;7.810;2022-08-19T11:03:37;22.70;96.20
1700;DHT22;847;48.058;7.810;2022-08-19T11:06:06;22.80;96.10
1700;DHT22;847;48.058;7.810;2022-08-19T11:08:36;22.80;95.50
1700;DHT22;847;48.058;7.810;2022-08-19T11:11:04;22.90;95.90
1700;DHT22;847;48.058;7.810;2022-08-19T11:13:32;22.90;94.90
1700;DHT22;847;48.058;7.810;2022-08-19T11:16:04;23.00;95.60
1700;DHT22;847;48.058;7.810;2022-08-19T11:18:32;23.20;94.90
1700;DHT22;847;48.058;7.810;2022-08-19T11:21:06;23.20;93.30
1700;DHT22;847;48.058;7.810;2022-08-19T11:23:33;23.20;94.00
1700;DHT22;847;48.058;7.810;2022-08-19T11:25:59;23.20;93.80
1700;DHT22;847;48.058;7.810;2022-08-19T11:28:26;23.30;94.00
1700;DHT22;847;48.058;7.810;2022-08-19T11:30:53;23.30;92.30
1700;DHT22;847;48.058;7.810;2022-08-19T11:33:21;23.20;93.30
1700;DHT22;847;48.058;7.810;2022-08-19T11:35:48;23.20;93.10
1700;DHT22;847;48.058;7.810;2022-08-19T11:38:15;23.30;92.30
1700;DHT22;847;48.058;7.810;2022-08-19T11:40:43;23.30;93.20
1700;DHT22;847;48.058;7.810;2022-08-19T11:43:10;23.40;91.80
1700;DHT22;847;48.058;7.810;2022-08-19T11:45:37;23.40;92.10
1700;DHT22;847;48.058;7.810;2022-08-19T11:48:03;23.40;90.40
1700;DHT22;847;48.058;7.810;2022-08-19T11:50:32;23.40;91.20
1700;DHT22;847;48.058;7.810;2022-08-19T11:53:13;23.30;91.80
1700;DHT22;847;48.058;7.810;2022-08-19T11:55:39;23.40;91.30
1700;DHT22;847;48.058;7.810;2022-08-19T11:58:07;23.40;92.10
1700;DHT22;847;48.058;7.810;2022-08-19T12:00:35;23.30;91.60
1700;DHT22;847;48.058;7.810;2022-08-19T12:03:02;23.40;92.10
1700;DHT22;847;48.058;7.810;2022-08-19T12:05:28;23.40;92.30
1700;DHT22;847;48.058;7.810;2022-08-19T12:07:56;23.50;92.20
1700;DHT22;847;48.058;7.810;2022-08-19T12:10:24;23.50;90.20
1700;DHT22;847;48.058;7.810;2022-08-19T12:12:50;23.60;92.10
1700;DHT22;847;48.058;7.810;2022-08-19T12:15:17;23.70;92.40
1700;DHT22;847;48.058;7.810;2022-08-19T12:17:44;23.80;91.70
1700;DHT22;847;48.058;7.810;2022-08-19T12:20:12;23.80;90.80
1700;DHT22;847;48.058;7.810;2022-08-19T12:22:41;23.80;90.20
1700;DHT22;847;48.058;7.810;2022-08-19T12:25:10;23.80;89.70
1700;DHT22;847;48.058;7.810;2022-08-19T12:27:38;23.70;89.90
1700;DHT22;847;48.058;7.810;2022-08-19T12:30:07;23.70;92.80
1700;DHT22;847;48.058;7.810;2022-08-19T12:32:35;23.80;92.30
1700;DHT22;847;48.058;7.810;2022-08-19T12:35:02;23.70;91.40
1700;DHT22;847;48.058;7.810;2022-08-19T12:37:29;23.70;89.20
1700;DHT22;847;48.058;7.810;2022-08-19T12:39:57;23.70;89.50
1700;DHT22;847;48.058;7.810;2022-08-19T12:42:25;23.80;90.40
1700;DHT22;847;48.058;7.810;2022-08-19T12:44:52;23.90;89.90
1700;DHT22;847;48.058;7.810;2022-08-19T12:47:18;23.90;90.20
1700;DHT22;847;48.058;7.810;2022-08-19T12:49:46;23.90;88.60
1700;DHT22;847;48.058;7.810;2022-08-19T12:52:14;23.90;87.40
1700;DHT22;847;48.058;7.810;2022-08-19T12:54:42;24.00;87.90
1700;DHT22;847;48.058;7.810;2022-08-19T12:57:10;24.10;89.70
1700;DHT22;847;48.058;7.810;2022-08-19T12:59:39;24.30;87.90
1700;DHT22;847;48.058;7.810;2022-08-19T13:02:07;24.40;87.40
1700;DHT22;847;48.058;7.810;2022-08-19T13:04:34;24.50;88.40
1700;DHT22;847;48.058;7.810;2022-08-19T13:07:06;25.10;87.10
1700;DHT22;847;48.058;7.810;2022-08-19T13:09:33;25.80;85.00
1700;DHT22;847;48.058;7.810;2022-08-19T13:12:00;26.20;80.70
1700;DHT22;847;48.058;7.810;2022-08-19T13:14:32;26.30;80.70
1700;DHT22;847;48.058;7.810;2022-08-19T13:17:01;26.70;82.60
1700;DHT22;847;48.058;7.810;2022-08-19T13:19:27;27.10;80.90
1700;DHT22;847;48.058;7.810;2022-08-19T13:21:55;27.30;80.10
1700;DHT22;847;48.058;7.810;2022-08-19T13:24:23;27.50;78.90
1700;DHT22;847;48.058;7.810;2022-08-19T13:26:50;27.40;78.60
1700;DHT22;847;48.058;7.810;2022-08-19T13:29:16;27.40;78.70
1700;DHT22;847;48.058;7.810;2022-08-19T13:32:03;27.40;78.90
1700;DHT22;847;48.058;7.810;2022-08-19T13:34:49;27.70;79.00
1700;DHT22;847;48.058;7.810;2022-08-19T13:37:16;27.50;77.70
1700;DHT22;847;48.058;7.810;2022-08-19T13:40:03;27.70;77.40
1700;DHT22;847;48.058;7.810;2022-08-19T13:42:30;27.90;76.70
1700;DHT22;847;48.058;7.810;2022-08-19T13:44:57;27.90;75.90
1700;DHT22;847;48.058;7.810;2022-08-19T13:47:26;28.00;74.50
1700;DHT22;847;48.058;7.810;2022-08-19T13:49:53;28.10;75.70
1700;DHT22;847;48.058;7.810;2022-08-19T13:52:20;28.40;72.40
1700;DHT22;847;48.058;7.810;2022-08-19T13:54:47;27.70;73.90
1700;DHT22;847;48.058;7.810;2022-08-19T13:57:14;27.60;74.90
1700;DHT22;847;48.058;7.810;2022-08-19T13:59:41;28.00;75.50
1700;DHT22;847;48.058;7.810;2022-08-19T14:02:07;28.20;73.80
1700;DHT22;847;48.058;7.810;2022-08-19T14:04:37;28.20;74.50
1700;DHT22;847;48.058;7.810;2022-08-19T14:07:04;28.20;73.20
1700;DHT22;847;48.058;7.810;2022-08-19T14:09:31;28.10;72.20
1700;DHT22;847;48.058;7.810;2022-08-19T14:11:58;27.70;74.50
1700;DHT22;847;48.058;7.810;2022-08-19T14:14:24;27.40;74.40
1700;DHT22;847;48.058;7.810;2022-08-19T14:16:51;27.10;74.70
1700;DHT22;847;48.058;7.810;2022-08-19T14:19:18;26.90;75.50
1700;DHT22;847;48.058;7.810;2022-08-19T14:21:46;26.80;75.70
1700;DHT22;847;48.058;7.810;2022-08-19T14:24:13;26.70;77.30
1700;DHT22;847;48.058;7.810;2022-08-19T14:26:40;26.50;78.70
1700;DHT22;847;48.058;7.810;2022-08-19T14:29:06;26.60;77.90
1700;DHT22;847;48.058;7.810;2022-08-19T14:31:33;26.50;78.40
1700;DHT22;847;48.058;7.810;2022-08-19T14:34:00;26.30;79.60
1700;DHT22;847;48.058;7.810;2022-08-19T14:36:26;26.10;80.90
1700;DHT22;847;48.058;7.810;2022-08-19T14:38:54;26.40;81.20
1700;DHT22;847;48.058;7.810;2022-08-19T14:41:23;26.50;80.90
1700;DHT22;847;48.058;7.810;2022-08-19T14:43:51;26.60;80.80
1700;DHT22;847;48.058;7.810;2022-08-19T14:46:20;26.60;80.50
1700;DHT22;847;48.058;7.810;2022-08-19T14:48:47;26.70;80.40
1700;DHT22;847;48.058;7.810;2022-08-19T14:51:14;26.60;79.80
1700;DHT22;847;48.058;7.810;2022-08-19T14:53:42;26.60;80.00
1700;DHT22;847;48.058;7.810;2022-08-19T14:56:12;26.60;80.50
1700;DHT22;847;48.058;7.810;2022-08-19T14:58:39;26.60;80.70
1700;DHT22;847;48.058;7.810;2022-08-19T15:01:07;26.70;80.70
1700;DHT22;847;48.058;7.810;2022-08-19T15:03:34;26.70;80.70
1700;DHT22;847;48.058;7.810;2022-08-19T15:06:03;26.60;80.80
1700;DHT22;847;48.058;7.810;2022-08-19T15:08:31;26.80;80.20
1700;DHT22;847;48.058;7.810;2022-08-19T15:10:59;26.80;80.70
1700;DHT22;847;48.058;7.810;2022-08-19T15:13:28;26.60;80.80
1700;DHT22;847;48.058;7.810;2022-08-19T15:15:56;26.60;80.70
1700;DHT22;847;48.058;7.810;2022-08-19T15:18:23;26.60;80.90
1700;DHT22;847;48.058;7.810;2022-08-19T15:20:50;26.60;81.10
1700;DHT22;847;48.058;7.810;2022-08-19T15:23:18;26.40;82.00
1700;DHT22;847;48.058;7.810;2022-08-19T15:25:45;26.30;82.40
1700;DHT22;847;48.058;7.810;2022-08-19T15:28:12;26.30;81.70
1700;DHT22;847;48.058;7.810;2022-08-19T15:30:42;26.40;81.60
1700;DHT22;847;48.058;7.810;2022-08-19T15:33:10;26.30;81.70
1700;DHT22;847;48.058;7.810;2022-08-19T15:35:39;26.40;81.30
1700;DHT22;847;48.058;7.810;2022-08-19T15:38:07;26.70;80.60
1700;DHT22;847;48.058;7.810;2022-08-19T15:40:36;26.80;80.00
1700;DHT22;847;48.058;7.810;2022-08-19T15:43:02;26.70;80.10
1700;DHT22;847;48.058;7.810;2022-08-19T15:45:29;26.60;80.70
1700;DHT22;847;48.058;7.810;2022-08-19T15:48:00;26.60;80.50
1700;DHT22;847;48.058;7.810;2022-08-19T15:50:28;26.60;80.50
1700;DHT22;847;48.058;7.810;2022-08-19T15:52:58;26.70;79.90
1700;DHT22;847;48.058;7.810;2022-08-19T15:55:28;26.50;80.50
1700;DHT22;847;48.058;7.810;2022-08-19T15:57:57;26.30;80.80
1700;DHT22;847;48.058;7.810;2022-08-19T16:00:41;26.40;81.20
1700;DHT22;847;48.058;7.810;2022-08-19T16:03:27;26.30;81.50
1700;DHT22;847;48.058;7.810;2022-08-19T16:06:11;26.30;81.40
1700;DHT22;847;48.058;7.810;2022-08-19T16:08:54;26.10;80.80
1700;DHT22;847;48.058;7.810;2022-08-19T16:11:23;26.20;80.80
1700;DHT22;847;48.058;7.810;2022-08-19T16:13:52;26.20;80.70
1700;DHT22;847;48.058;7.810;2022-08-19T16:16:20;26.20;80.50
1700;DHT22;847;48.058;7.810;2022-08-19T16:18:50;25.90;80.40
1700;DHT22;847;48.058;7.810;2022-08-19T16:21:18;25.70;81.40
1700;DHT22;847;48.058;7.810;2022-08-19T16:23:46;25.40;82.00
1700;DHT22;847;48.058;7.810;2022-08-19T16:26:14;25.10;83.10